createdAt,value
2022-08-30T00:00:41.460Z,49.32
2022-08-30T00:05:44.866Z,49.37
2022-08-30T00:10:47.897Z,49.54
2022-08-30T00:15:50.755Z,50.12
2022-08-30T00:20:53.530Z,50.01
2022-08-30T00:25:55.921Z,50.38
2022-08-30T00:30:58.432Z,51.22
2022-08-30T00:36:01.239Z,51.88
2022-08-30T00:41:04.182Z,52.24
2022-08-30T00:46:08.959Z,52.51
2022-08-30T00:51:14.654Z,52.58
2022-08-30T00:56:19.959Z,52.87
2022-08-30T01:01:22.944Z,54.16
2022-08-30T01:06:32.684Z,55.27
2022-08-30T01:11:38.638Z,54.86
2022-08-30T01:16:43.959Z,55.57
2022-08-30T01:21:55.850Z,55.06
2022-08-30T01:26:58.757Z,54.62
2022-08-30T01:32:01.176Z,55.12
2022-08-30T01:37:03.522Z,55.13
2022-08-30T01:42:06.428Z,55.38
2022-08-30T01:47:08.919Z,55.14
2022-08-30T01:52:12.126Z,55.86
2022-08-30T01:57:21.512Z,55.75
2022-08-30T02:02:27.718Z,55.68
2022-08-30T02:07:30.277Z,56.27
2022-08-30T02:12:33.283Z,56.56
2022-08-30T02:17:35.622Z,56.27
2022-08-30T02:22:38.024Z,56.12
2022-08-30T02:27:40.453Z,56.49
2022-08-30T02:32:45.175Z,56.52
2022-08-30T02:37:47.526Z,56.55
2022-08-30T02:42:50.390Z,57.02
2022-08-30T02:47:52.854Z,57.26
2022-08-30T02:52:55.658Z,57.52
2022-08-30T02:57:58.049Z,57.23
2022-08-30T03:03:01.016Z,57.21
2022-08-30T03:08:03.566Z,56.99
2022-08-30T03:13:08.125Z,57.45
2022-08-30T03:18:11.465Z,57.43
2022-08-30T03:23:21.401Z,57.31
2022-08-30T03:28:24.790Z,57.16
2022-08-30T03:33:27.675Z,57.42
2022-08-30T03:38:30.658Z,56.75
2022-08-30T03:43:34.120Z,56.96
2022-08-30T03:48:37.445Z,56.88
2022-08-30T03:53:39.880Z,56.53
2022-08-30T03:58:42.445Z,56.48
2022-08-30T04:03:44.864Z,56.55
2022-08-30T04:08:47.243Z,56.31
2022-08-30T04:13:52.347Z,56.34
2022-08-30T04:18:54.734Z,56.08
2022-08-30T04:23:57.170Z,54.93
2022-08-30T04:28:59.892Z,54.72
2022-08-30T04:34:05.128Z,54.92
2022-08-30T04:39:07.920Z,54.96
2022-08-30T04:44:15.834Z,54.52
2022-08-30T04:49:22.194Z,54.48
2022-08-30T04:54:24.602Z,54.62
2022-08-30T04:59:27.392Z,54.41
2022-08-30T05:04:30.056Z,54.49
2022-08-30T05:09:32.518Z,54.63
2022-08-30T05:14:35.358Z,54.91
2022-08-30T05:19:37.852Z,54.56
2022-08-30T05:24:40.468Z,54.41
2022-08-30T05:29:43.020Z,55.00
2022-08-30T05:34:45.814Z,54.41
2022-08-30T05:39:51.599Z,54.64
2022-08-30T05:44:55.369Z,54.33
2022-08-30T05:49:57.915Z,54.75
2022-08-30T05:55:00.317Z,54.42
2022-08-30T06:00:05.785Z,54.33
2022-08-30T06:05:09.315Z,54.02
2022-08-30T06:10:12.915Z,53.79
2022-08-30T06:15:15.623Z,53.70
2022-08-30T06:20:20.747Z,53.01
2022-08-30T06:25:23.309Z,52.95
2022-08-30T06:30:26.403Z,52.83
2022-08-30T06:35:59.227Z,52.38
2022-08-30T06:41:10.545Z,52.32
2022-08-30T06:46:19.321Z,51.78
2022-08-30T06:51:28.584Z,50.75
2022-08-30T06:56:32.133Z,50.39
2022-08-30T07:01:34.765Z,49.96
2022-08-30T07:06:37.457Z,49.59
2022-08-30T07:11:41.002Z,49.17
2022-08-30T07:16:44.893Z,49.06
2022-08-30T07:21:54.424Z,48.73
2022-08-30T07:26:56.946Z,47.57
2022-08-30T07:31:59.411Z,47.20
2022-08-30T07:37:01.856Z,47.49
2022-08-30T07:42:04.623Z,46.63
2022-08-30T07:47:07.381Z,46.01
2022-08-30T07:52:10.078Z,45.86
2022-08-30T07:57:12.655Z,45.24
2022-08-30T08:02:19.426Z,45.05
2022-08-30T08:07:22.227Z,44.80
2022-08-30T08:12:25.250Z,44.10
2022-08-30T08:17:28.246Z,44.05
2022-08-30T08:22:30.725Z,43.91
2022-08-30T08:27:33.159Z,43.57
2022-08-30T08:32:36.360Z,42.70
2022-08-30T08:37:50.317Z,42.23
2022-08-30T08:43:09.196Z,41.70
2022-08-30T08:48:32.094Z,42.63
2022-08-30T08:53:58.832Z,41.80
2022-08-30T08:59:01.524Z,41.27
2022-08-30T09:04:10.194Z,40.63
2022-08-30T09:09:16.573Z,40.33
2022-08-30T09:14:35.166Z,40.37
2022-08-30T09:20:05.599Z,39.52
2022-08-30T09:25:14.184Z,39.74
2022-08-30T09:30:27.423Z,39.33
2022-08-30T09:35:37.079Z,38.90
2022-08-30T09:40:44.098Z,38.58
2022-08-30T09:46:16.317Z,37.43
2022-08-30T09:51:40.396Z,37.79
2022-08-30T09:57:13.323Z,38.10
2022-08-30T10:02:41.378Z,37.71
2022-08-30T10:07:48.031Z,37.78
2022-08-30T10:13:02.185Z,36.92
2022-08-30T10:18:21.055Z,37.01
2022-08-30T10:23:29.019Z,36.85
2022-08-30T10:28:37.367Z,36.28
2022-08-30T10:33:43.785Z,36.28
2022-08-30T10:38:52.985Z,35.50
2022-08-30T10:44:16.266Z,35.55
2022-08-30T10:49:23.886Z,34.97
2022-08-30T10:54:35.492Z,34.59
2022-08-30T10:59:46.159Z,34.63
2022-08-30T11:04:58.508Z,34.12
2022-08-30T11:10:24.455Z,33.35
2022-08-30T11:15:32.068Z,32.95
2022-08-30T11:20:40.361Z,33.03
2022-08-30T11:26:04.726Z,33.59
2022-08-30T11:31:16.007Z,33.34
2022-08-30T11:36:37.364Z,33.21
2022-08-30T11:41:45.606Z,33.03
2022-08-30T11:46:53.789Z,32.64
2022-08-30T11:52:26.587Z,32.15
2022-08-30T11:57:51.275Z,32.08
2022-08-30T12:03:08.529Z,31.66
2022-08-30T12:08:37.278Z,31.95
2022-08-30T12:13:53.114Z,32.49
2022-08-30T12:19:10.693Z,31.73
2022-08-30T12:24:28.395Z,32.04
2022-08-30T12:29:32.313Z,31.91
2022-08-30T12:34:38.199Z,31.99
2022-08-30T12:39:44.923Z,32.13
2022-08-30T12:44:49.933Z,31.84
2022-08-30T12:49:54.779Z,31.70
2022-08-30T12:55:26.168Z,31.85
2022-08-30T13:00:49.347Z,32.83
2022-08-30T13:05:53.175Z,32.70
2022-08-30T13:11:04.458Z,31.99
2022-08-30T13:16:19.314Z,32.59
2022-08-30T13:21:30.811Z,32.16
2022-08-30T13:26:37.141Z,31.16
2022-08-30T13:31:39.608Z,30.84
2022-08-30T13:37:01.243Z,29.36
2022-08-30T13:47:34.889Z,27.92
2022-08-30T13:52:37.625Z,28.18
2022-08-30T13:57:56.722Z,28.16
2022-08-30T14:03:00.399Z,28.74
2022-08-30T14:08:05.415Z,29.36
2022-08-30T14:13:10.653Z,29.89
2022-08-30T14:18:18.107Z,30.45
2022-08-30T14:23:21.208Z,35.83
2022-08-30T14:28:25.113Z,40.26
2022-08-30T14:33:29.215Z,40.24
2022-08-30T14:38:32.186Z,41.59
2022-08-30T14:43:34.970Z,42.53
2022-08-30T14:48:39.561Z,42.49
2022-08-30T14:53:44.005Z,42.43
2022-08-30T14:59:03.365Z,42.50
2022-08-30T15:04:11.188Z,42.57
2022-08-30T15:09:16.982Z,42.98
2022-08-30T15:14:19.414Z,43.86
2022-08-30T15:19:22.523Z,45.05
2022-08-30T15:24:29.694Z,47.88
2022-08-30T15:29:32.535Z,47.83
2022-08-30T15:34:35.308Z,48.07
2022-08-30T15:39:37.848Z,49.17
2022-08-30T15:44:43.256Z,50.26
2022-08-30T15:49:45.850Z,50.58
2022-08-30T15:54:49.207Z,51.40
2022-08-30T15:59:54.996Z,51.45
2022-08-30T16:04:57.368Z,51.81
2022-08-30T16:10:00.009Z,51.85
2022-08-30T16:15:02.469Z,51.35
2022-08-30T16:20:05.482Z,51.03
2022-08-30T16:25:09.131Z,50.87
2022-08-30T16:30:12.829Z,51.39
2022-08-30T16:35:15.590Z,51.38
2022-08-30T16:40:18.312Z,51.20
2022-08-30T16:45:20.878Z,50.79
2022-08-30T16:50:26.428Z,50.99
2022-08-30T16:55:30.486Z,51.56
2022-08-30T17:00:34.045Z,52.02
2022-08-30T17:05:38.029Z,51.66
2022-08-30T17:10:43.740Z,52.10
2022-08-30T17:15:52.964Z,52.86
2022-08-30T17:20:55.395Z,53.74
2022-08-30T17:26:11.694Z,54.71
2022-08-30T17:31:14.914Z,53.87
2022-08-30T17:36:26.967Z,52.22
2022-08-30T17:41:29.488Z,49.95
2022-08-30T17:46:33.521Z,49.04
2022-08-30T17:51:37.464Z,49.53
2022-08-30T17:56:43.110Z,50.19
2022-08-30T18:01:46.325Z,50.06
2022-08-30T18:06:49.242Z,50.25
2022-08-30T18:11:56.295Z,50.75
2022-08-30T18:16:59.207Z,50.48
2022-08-30T18:22:03.173Z,50.83
2022-08-30T18:27:06.397Z,50.85
2022-08-30T18:32:09.200Z,50.97
2022-08-30T18:37:13.481Z,51.02
2022-08-30T18:42:16.508Z,50.95
2022-08-30T18:47:19.123Z,51.12
2022-08-30T18:52:28.371Z,51.02
2022-08-30T18:57:33.887Z,50.77
2022-08-30T19:02:39.295Z,50.64
2022-08-30T19:07:47.039Z,50.51
2022-08-30T19:12:50.356Z,50.07
2022-08-30T19:17:53.222Z,49.90
2022-08-30T19:23:09.509Z,49.74
2022-08-30T19:28:13.226Z,49.88
2022-08-30T19:33:15.820Z,49.73
2022-08-30T19:38:18.328Z,49.78
2022-08-30T19:43:20.858Z,50.23
2022-08-30T19:48:32.385Z,50.23
2022-08-30T19:53:36.150Z,50.04
2022-08-30T19:58:39.006Z,50.24
2022-08-30T20:03:43.479Z,50.38
2022-08-30T20:08:46.253Z,50.42
2022-08-30T20:13:49.094Z,50.91
2022-08-30T20:18:54.213Z,52.41
2022-08-30T20:24:01.645Z,53.09
2022-08-30T20:29:04.752Z,53.27
2022-08-30T20:34:11.157Z,53.58
2022-08-30T20:39:17.355Z,54.35
2022-08-30T20:44:20.074Z,54.59
2022-08-30T20:49:22.626Z,54.70
2022-08-30T20:54:25.045Z,54.55
2022-08-30T20:59:28.413Z,55.39
2022-08-30T21:04:32.231Z,55.02
2022-08-30T21:09:34.724Z,55.87
2022-08-30T21:14:37.217Z,56.37
2022-08-30T21:19:43.684Z,56.02
2022-08-30T21:24:46.762Z,55.75
2022-08-30T21:29:49.514Z,57.18
2022-08-30T21:35:10.427Z,56.26
2022-08-30T21:40:15.088Z,55.74
2022-08-30T21:45:17.802Z,55.54
2022-08-30T21:50:20.287Z,55.76
2022-08-30T21:55:22.742Z,55.96
2022-08-30T22:00:26.504Z,57.34
2022-08-30T22:05:29.123Z,57.20
2022-08-30T22:10:33.481Z,57.87
2022-08-30T22:15:36.074Z,58.20
2022-08-30T22:20:40.952Z,57.95
2022-08-30T22:25:44.430Z,57.62
2022-08-30T22:30:47.722Z,57.53
2022-08-30T22:35:51.910Z,57.62
2022-08-30T22:40:58.425Z,57.27
2022-08-30T22:46:01.782Z,57.44
2022-08-30T22:51:04.314Z,57.42
2022-08-30T22:56:16.194Z,57.03
2022-08-30T23:01:25.945Z,57.25
2022-08-30T23:06:29.633Z,57.40
2022-08-30T23:11:33.446Z,57.70
2022-08-30T23:16:36.295Z,57.48
2022-08-30T23:21:38.792Z,57.48
2022-08-30T23:27:00.676Z,57.62
2022-08-30T23:32:27.245Z,57.68
2022-08-30T23:37:48.494Z,57.65
2022-08-30T23:43:13.838Z,57.98
2022-08-30T23:48:34.425Z,57.70
2022-08-30T23:53:55.165Z,57.73
2022-08-30T23:59:15.987Z,57.98
